WXM80 ListenWXM80 Stop

You find our weather info also at:

UK Metoffice

WeatherCloud

Weather Underground

Northeastern Weather Network

AWEKAS

Citizen Weather Observer Program (CWOP)

HAMweather, WeatherForYou, PWS Weather


Weather Underground History page Text

Daily Summary for September 15, 2016 Units:  English    Metric   Both
« Previous Day
Next Day »
Daily Weekly Monthly Yearly Custom
  High: Low: Average:
Temperature: 75.9 °F 60.2 °F 67 °F
Dew Point: 60.1 °F 51.6 °F 54.5 °F
Humidity: 82 % 45 % 65 %
Wind Speed: 11.0 mph 0.0 mph 3.4 mph
Wind Gust: 20.0 mph - -
Wind:- - East
Pressure: 30.27 in 30.10 in -
Precipitation: 0.00 in    
Historical Graphs
 
 
Tabular Data for September 15, 2016
Time Temperature Dew Point Pressure Wind Wind Speed Wind Gust Humidity Rainfall Rate (Hourly)
00:00 69.3 °F 59.5 °F 30.10 in NNE 6.8 mph 13.0 mph 71 % 0.00 in
00:05 69.2 °F 59.8 °F 30.10 in NNE 8.2 mph 12.0 mph 72 % 0.00 in
00:10 69.1 °F 60.1 °F 30.11 in NNW 6.0 mph 11.5 mph 73 % 0.00 in
00:15 69.1 °F 60.1 °F 30.11 in NNE 6.1 mph 11.5 mph 73 % 0.00 in
00:20 69.0 °F 59.6 °F 30.11 in NNE 5.1 mph 8.1 mph 72 % 0.00 in
00:25 68.9 °F 59.1 °F 30.11 in NE 7.0 mph 11.5 mph 71 % 0.00 in
00:30 68.9 °F 59.5 °F 30.12 in NE 8.4 mph 11.5 mph 72 % 0.00 in
00:35 68.8 °F 59.0 °F 30.12 in NE 8.8 mph 13.8 mph 71 % 0.00 in
00:41 68.7 °F 58.5 °F 30.12 in NNE 10.0 mph 16.0 mph 70 % 0.00 in
00:46 68.6 °F 58.4 °F 30.13 in NNW 8.6 mph 15.0 mph 70 % 0.00 in
00:51 68.5 °F 57.9 °F 30.13 in NNE 7.0 mph 20.0 mph 69 % 0.00 in
00:56 68.4 °F 58.2 °F 30.13 in North 9.0 mph 14.0 mph 70 % 0.00 in
01:01 68.3 °F 57.7 °F 30.13 in North 8.6 mph 11.5 mph 69 % 0.00 in
01:06 68.2 °F 57.6 °F 30.13 in NNE 7.0 mph 16.0 mph 69 % 0.00 in
01:11 68.1 °F 57.5 °F 30.14 in NNE 9.0 mph 15.0 mph 69 % 0.00 in
01:16 68.0 °F 57.4 °F 30.14 in ENE 4.7 mph 17.3 mph 69 % 0.00 in
01:26 67.9 °F 57.4 °F 30.14 in NNE 6.0 mph 14.0 mph 69 % 0.00 in
01:36 67.8 °F 57.6 °F 30.14 in NNE 7.0 mph 12.0 mph 70 % 0.00 in
01:41 67.7 °F 58.0 °F 30.14 in NNE 7.0 mph 12.0 mph 71 % 0.00 in
01:46 67.6 °F 57.9 °F 30.14 in NNE 3.2 mph 8.1 mph 71 % 0.00 in
01:51 67.6 °F 57.9 °F 30.14 in NNE 6.0 mph 12.0 mph 71 % 0.00 in
01:56 67.5 °F 58.2 °F 30.14 in NNE 6.0 mph 12.0 mph 72 % 0.00 in
02:01 67.5 °F 58.2 °F 30.15 in NE 4.5 mph 8.1 mph 72 % 0.00 in
02:06 67.4 °F 57.7 °F 30.15 in NE 6.0 mph 12.0 mph 71 % 0.00 in
02:11 67.2 °F 56.7 °F 30.15 in ENE 8.0 mph 12.0 mph 69 % 0.00 in
02:16 67.0 °F 56.1 °F 30.15 in East 9.7 mph 9.7 mph 68 % 0.00 in
02:21 66.9 °F 56.0 °F 30.15 in ENE 5.0 mph 12.0 mph 68 % 0.00 in
02:26 66.7 °F 55.4 °F 30.15 in NE 5.0 mph 13.0 mph 67 % 0.00 in
02:31 66.5 °F 53.1 °F 30.16 in NE 9.9 mph 13.8 mph 62 % 0.00 in
02:36 66.4 °F 53.4 °F 30.16 in ENE 7.0 mph 13.0 mph 63 % 0.00 in
02:41 66.2 °F 53.2 °F 30.16 in ENE 8.0 mph 14.0 mph 63 % 0.00 in
02:46 66.0 °F 52.2 °F 30.17 in ENE 8.0 mph 15.0 mph 61 % 0.00 in
02:51 65.8 °F 52.0 °F 30.16 in ENE 7.0 mph 13.0 mph 61 % 0.00 in
02:56 65.6 °F 52.2 °F 30.16 in ENE 6.0 mph 13.0 mph 62 % 0.00 in
03:01 65.4 °F 52.5 °F 30.16 in ENE 4.6 mph 8.1 mph 63 % 0.00 in
03:06 65.2 °F 52.7 °F 30.17 in NNE 7.0 mph 14.0 mph 64 % 0.00 in
03:11 65.0 °F 52.6 °F 30.17 in NE 5.0 mph 14.0 mph 64 % 0.00 in
03:16 64.9 °F 52.8 °F 30.17 in NE 5.0 mph 12.0 mph 65 % 0.00 in
03:21 64.8 °F 52.8 °F 30.17 in NE 5.0 mph 12.0 mph 65 % 0.00 in
03:26 64.6 °F 53.0 °F 30.17 in NE 7.0 mph 14.0 mph 66 % 0.00 in
03:31 64.5 °F 53.3 °F 30.17 in NE 6.0 mph 12.0 mph 67 % 0.00 in
03:35 64.4 °F 53.2 °F 30.18 in NE 8.9 mph 11.0 mph 67 % 0.00 in
03:41 64.3 °F 52.7 °F 30.18 in NE 5.0 mph 12.0 mph 66 % 0.00 in
03:46 64.2 °F 53.0 °F 30.18 in NE 3.0 mph 13.0 mph 67 % 0.00 in
03:51 64.1 °F 52.9 °F 30.18 in NE 7.0 mph 10.0 mph 67 % 0.00 in
03:56 64.0 °F 52.8 °F 30.18 in NE 6.0 mph 13.0 mph 67 % 0.00 in
04:01 64.0 °F 53.2 °F 30.18 in North 7.2 mph 11.5 mph 68 % 0.00 in
04:06 63.9 °F 53.1 °F 30.18 in NE 5.0 mph 12.0 mph 68 % 0.00 in
04:11 63.7 °F 52.9 °F 30.18 in ENE 4.1 mph 5.8 mph 68 % 0.00 in
04:16 63.6 °F 52.8 °F 30.18 in NE 3.4 mph 9.2 mph 68 % 0.00 in
04:21 63.5 °F 53.5 °F 30.18 in NE 5.4 mph 10.4 mph 70 % 0.00 in
04:26 63.4 °F 53.4 °F 30.18 in NE 4.5 mph 6.9 mph 70 % 0.00 in
04:31 63.3 °F 53.3 °F 30.19 in NE 4.1 mph 8.0 mph 70 % 0.00 in
04:36 63.2 °F 54.0 °F 30.18 in NE 3.7 mph 8.0 mph 72 % 0.00 in
04:41 63.1 °F 53.9 °F 30.19 in NNE 5.2 mph 9.2 mph 72 % 0.00 in
04:46 62.9 °F 53.7 °F 30.18 in ENE 5.9 mph 11.5 mph 72 % 0.00 in
04:51 62.7 °F 53.5 °F 30.18 in East 6.7 mph 12.7 mph 72 % 0.00 in
04:57 62.5 °F 53.0 °F 30.18 in NE 4.6 mph 6.9 mph 71 % 0.00 in
05:02 62.4 °F 52.9 °F 30.18 in ENE 5.0 mph 10.4 mph 71 % 0.00 in
05:07 62.4 °F 53.3 °F 30.19 in NE 4.7 mph 13.8 mph 72 % 0.00 in
05:12 62.3 °F 53.5 °F 30.19 in NNE 7.1 mph 11.5 mph 73 % 0.00 in
05:17 62.2 °F 53.1 °F 30.19 in NNE 4.7 mph 10.4 mph 72 % 0.00 in
05:22 62.2 °F 53.4 °F 30.19 in ENE 4.8 mph 10.4 mph 73 % 0.00 in
05:27 62.2 °F 52.7 °F 30.19 in NNE 5.9 mph 12.7 mph 71 % 0.00 in
05:32 62.3 °F 52.8 °F 30.19 in ENE 4.7 mph 11.5 mph 71 % 0.00 in
05:37 62.3 °F 53.2 °F 30.19 in NNE 5.4 mph 10.0 mph 72 % 0.00 in
05:42 62.3 °F 53.5 °F 30.19 in East 5.7 mph 10.4 mph 73 % 0.00 in
05:48 62.3 °F 53.9 °F 30.19 in NNE 8.3 mph 12.7 mph 74 % 0.00 in
05:53 62.2 °F 53.8 °F 30.19 in NNE 5.6 mph 16.1 mph 74 % 0.00 in
05:58 62.1 °F 54.1 °F 30.19 in North 7.2 mph 13.0 mph 75 % 0.00 in
06:03 62.0 °F 54.0 °F 30.19 in NE 6.1 mph 10.0 mph 75 % 0.00 in
06:08 61.9 °F 53.9 °F 30.19 in NNE 8.1 mph 12.0 mph 75 % 0.00 in
06:13 61.8 °F 53.8 °F 30.19 in NNE 7.9 mph 11.5 mph 75 % 0.00 in
06:18 61.7 °F 53.7 °F 30.19 in NNE 11.0 mph 16.1 mph 75 % 0.00 in
06:23 61.6 °F 53.6 °F 30.19 in North 7.5 mph 13.0 mph 75 % 0.00 in
06:28 61.4 °F 53.4 °F 30.20 in NNE 6.9 mph 12.7 mph 75 % 0.00 in
06:33 61.4 °F 53.8 °F 30.20 in North 8.2 mph 15.0 mph 76 % 0.00 in
06:38 61.3 °F 53.3 °F 30.20 in NNE 5.6 mph 10.4 mph 75 % 0.00 in
06:43 61.2 °F 53.6 °F 30.20 in NE 8.0 mph 8.1 mph 76 % 0.00 in
06:49 61.1 °F 53.5 °F 30.20 in NNW 4.1 mph 12.7 mph 76 % 0.00 in
06:54 61.1 °F 54.2 °F 30.21 in NNE 7.1 mph 13.8 mph 78 % 0.00 in
06:59 61.2 °F 53.9 °F 30.21 in NNE 7.4 mph 11.5 mph 77 % 0.00 in
07:04 61.2 °F 53.9 °F 30.21 in NNE 6.5 mph 12.7 mph 77 % 0.00 in
07:09 61.2 °F 53.9 °F 30.21 in North 5.0 mph 9.2 mph 77 % 0.00 in
07:14 61.2 °F 54.3 °F 30.21 in NNE 4.4 mph 9.2 mph 78 % 0.00 in
07:19 61.2 °F 53.9 °F 30.21 in North 6.7 mph 12.7 mph 77 % 0.00 in
07:24 61.3 °F 54.0 °F 30.22 in ENE 6.6 mph 11.5 mph 77 % 0.00 in
07:29 61.3 °F 54.0 °F 30.22 in ENE 5.7 mph 15.0 mph 77 % 0.00 in
07:34 61.4 °F 54.1 °F 30.22 in NNW 5.5 mph 11.5 mph 77 % 0.00 in
07:40 61.4 °F 54.1 °F 30.23 in ENE 4.8 mph 11.5 mph 77 % 0.00 in
07:45 61.6 °F 54.3 °F 30.23 in NNE 3.8 mph 8.1 mph 77 % 0.00 in
07:50 61.7 °F 54.1 °F 30.23 in ENE 4.4 mph 7.0 mph 76 % 0.00 in
07:55 61.7 °F 54.1 °F 30.23 in NNE 4.0 mph 9.2 mph 76 % 0.00 in
08:00 61.8 °F 54.2 °F 30.23 in NE 4.0 mph 8.1 mph 76 % 0.00 in
08:05 61.9 °F 54.2 °F 30.23 in NE 4.4 mph 5.0 mph 76 % 0.00 in
08:10 62.0 °F 54.3 °F 30.23 in NE 5.1 mph 11.5 mph 76 % 0.00 in
08:15 62.1 °F 54.4 °F 30.23 in NNE 6.5 mph 9.2 mph 76 % 0.00 in
08:21 62.1 °F 53.7 °F 30.23 in NE 5.0 mph 12.0 mph 74 % 0.00 in
08:25 62.2 °F 54.5 °F 30.23 in North 6.8 mph 11.0 mph 76 % 0.00 in
08:30 62.3 °F 54.3 °F 30.24 in NNE 6.0 mph 12.0 mph 75 % 0.00 in
08:36 62.4 °F 54.0 °F 30.24 in NE 7.0 mph 13.0 mph 74 % 0.00 in
08:40 62.6 °F 54.2 °F 30.24 in NNE 5.8 mph 6.0 mph 74 % 0.00 in
08:45 62.7 °F 54.3 °F 30.24 in NE 6.0 mph 12.0 mph 74 % 0.00 in
08:51 62.9 °F 54.1 °F 30.25 in NNE 3.0 mph 10.0 mph 73 % 0.00 in
08:55 63.1 °F 54.3 °F 30.24 in NNE 6.1 mph 9.0 mph 73 % 0.00 in
09:01 63.2 °F 54.0 °F 30.25 in ENE 5.0 mph 11.5 mph 72 % 0.00 in
09:06 63.4 °F 54.2 °F 30.25 in North 3.7 mph 9.2 mph 72 % 0.00 in
09:11 63.6 °F 54.0 °F 30.25 in NNE 3.7 mph 9.2 mph 71 % 0.00 in
09:16 63.7 °F 54.1 °F 30.25 in NNE 5.6 mph 11.5 mph 71 % 0.00 in
09:21 63.7 °F 53.7 °F 30.25 in NE 4.0 mph 6.9 mph 70 % 0.00 in
09:26 63.9 °F 54.3 °F 30.25 in NE 5.9 mph 9.2 mph 71 % 0.00 in
09:31 64.1 °F 53.3 °F 30.25 in NNE 4.3 mph 6.0 mph 68 % 0.00 in
09:36 64.3 °F 53.5 °F 30.25 in NE 5.4 mph 11.5 mph 68 % 0.00 in
09:41 64.5 °F 52.9 °F 30.25 in ENE 4.6 mph 11.5 mph 66 % 0.00 in
09:46 64.7 °F 53.5 °F 30.25 in NE 4.9 mph 11.5 mph 67 % 0.00 in
09:52 65.0 °F 53.4 °F 30.25 in NE 4.0 mph 9.2 mph 66 % 0.00 in
09:57 65.4 °F 53.7 °F 30.25 in NE 3.8 mph 8.1 mph 66 % 0.00 in
10:02 65.7 °F 53.2 °F 30.25 in NE 4.1 mph 8.1 mph 64 % 0.00 in
10:07 65.9 °F 52.9 °F 30.26 in East 5.1 mph 9.2 mph 63 % 0.00 in
10:12 66.0 °F 53.0 °F 30.25 in NNE 3.7 mph 8.1 mph 63 % 0.00 in
10:17 66.1 °F 53.1 °F 30.26 in ENE 3.2 mph 11.5 mph 63 % 0.00 in
10:22 66.2 °F 52.8 °F 30.26 in NE 4.4 mph 9.2 mph 62 % 0.00 in
10:27 66.3 °F 52.9 °F 30.25 in NNE 5.4 mph 9.2 mph 62 % 0.00 in
10:32 66.4 °F 52.1 °F 30.26 in ENE 5.4 mph 12.7 mph 60 % 0.00 in
10:37 66.4 °F 53.8 °F 30.26 in NE 4.9 mph 12.0 mph 64 % 0.00 in
10:43 66.5 °F 53.1 °F 30.26 in NE 7.0 mph 10.4 mph 62 % 0.00 in
10:48 66.6 °F 51.8 °F 30.25 in ENE 5.9 mph 10.4 mph 59 % 0.00 in
10:53 66.7 °F 52.8 °F 30.25 in NNE 6.5 mph 10.4 mph 61 % 0.00 in
10:58 66.8 °F 52.5 °F 30.26 in ENE 4.7 mph 9.2 mph 60 % 0.00 in
11:03 66.8 °F 52.9 °F 30.26 in East 5.7 mph 9.2 mph 61 % 0.00 in
11:09 67.1 °F 53.2 °F 30.26 in ENE 8.6 mph 12.0 mph 61 % 0.00 in
11:14 67.4 °F 53.5 °F 30.26 in ENE 5.0 mph 9.2 mph 61 % 0.00 in
11:19 68.1 °F 53.7 °F 30.26 in ENE 6.0 mph 13.8 mph 60 % 0.00 in
11:24 68.6 °F 53.2 °F 30.26 in ENE 6.2 mph 9.0 mph 58 % 0.00 in
11:29 69.4 °F 54.9 °F 30.26 in ENE 4.1 mph 6.9 mph 60 % 0.00 in
11:34 69.9 °F 53.5 °F 30.26 in NE 5.4 mph 11.5 mph 56 % 0.00 in
11:40 70.4 °F 54.4 °F 30.26 in ENE 6.2 mph 10.4 mph 57 % 0.00 in
11:45 70.7 °F 54.7 °F 30.26 in ENE 5.3 mph 8.1 mph 57 % 0.00 in
11:50 71.0 °F 55.5 °F 30.26 in ENE 4.6 mph 11.5 mph 58 % 0.00 in
11:55 71.4 °F 56.3 °F 30.26 in ENE 2.4 mph 4.6 mph 59 % 0.00 in
12:00 71.8 °F 55.7 °F 30.26 in NE 3.3 mph 6.9 mph 57 % 0.00 in
12:05 71.9 °F 55.8 °F 30.26 in ENE 3.4 mph 9.2 mph 57 % 0.00 in
12:11 72.1 °F 55.0 °F 30.26 in ENE 2.0 mph 9.0 mph 55 % 0.00 in
12:16 72.4 °F 56.8 °F 30.26 in ENE 3.0 mph 10.0 mph 58 % 0.00 in
12:21 72.8 °F 56.2 °F 30.25 in ENE 3.0 mph 9.0 mph 56 % 0.00 in
12:26 73.6 °F 57.4 °F 30.25 in ENE 1.2 mph 3.5 mph 57 % 0.00 in
12:31 74.1 °F 55.9 °F 30.25 in ENE 3.0 mph 9.0 mph 53 % 0.00 in
12:36 73.9 °F 55.7 °F 30.25 in ENE 2.0 mph 9.0 mph 53 % 0.00 in
12:41 73.9 °F 56.7 °F 30.25 in ENE 1.0 mph 8.0 mph 55 % 0.00 in
12:46 74.5 °F 57.3 °F 30.25 in ENE 1.0 mph 4.0 mph 55 % 0.00 in
12:51 75.1 °F 57.3 °F 30.25 in ENE 1.0 mph 3.0 mph 54 % 0.00 in
12:56 75.1 °F 55.2 °F 30.25 in NE 3.0 mph 6.9 mph 50 % 0.00 in
13:01 74.9 °F 56.1 °F 30.25 in NE 1.8 mph 4.0 mph 52 % 0.00 in
13:06 75.1 °F 57.8 °F 30.25 in ENE 1.7 mph 3.5 mph 55 % 0.00 in
13:11 75.2 °F 56.4 °F 30.24 in ENE 1.7 mph 3.5 mph 52 % 0.00 in
13:16 75.4 °F 56.0 °F 30.24 in ENE 2.0 mph 3.5 mph 51 % 0.00 in
13:21 75.6 °F 57.3 °F 30.25 in East 1.2 mph 3.5 mph 53 % 0.00 in
13:26 75.5 °F 57.2 °F 30.24 in East 1.0 mph 2.3 mph 53 % 0.00 in
13:31 75.6 °F 55.6 °F 30.24 in East 1.7 mph 3.5 mph 50 % 0.00 in
13:36 75.6 °F 55.1 °F 30.24 in East 1.3 mph 3.0 mph 49 % 0.00 in
13:41 75.6 °F 55.1 °F 30.24 in ENE 2.6 mph 4.6 mph 49 % 0.00 in
13:47 75.6 °F 53.9 °F 30.24 in NE 3.3 mph 6.0 mph 47 % 0.00 in
13:52 75.5 °F 56.6 °F 30.23 in ENE 1.4 mph 3.5 mph 52 % 0.00 in
13:57 75.7 °F 56.3 °F 30.23 in ENE 0.9 mph 3.5 mph 51 % 0.00 in
14:02 75.8 °F 56.9 °F 30.23 in NE 1.0 mph 2.3 mph 52 % 0.00 in
14:07 75.9 °F 54.2 °F 30.23 in ENE 1.3 mph 3.5 mph 47 % 0.00 in
14:12 75.8 °F 55.8 °F 30.23 in SE 2.7 mph 4.6 mph 50 % 0.00 in
14:17 75.9 °F 55.4 °F 30.23 in East 0.7 mph 2.3 mph 49 % 0.00 in
14:22 75.6 °F 55.1 °F 30.23 in East 1.5 mph 3.0 mph 49 % 0.00 in
14:27 75.7 °F 55.7 °F 30.23 in ENE 1.4 mph 2.3 mph 50 % 0.00 in
14:32 75.7 °F 55.2 °F 30.23 in ESE 1.5 mph 3.5 mph 49 % 0.00 in
14:38 75.6 °F 53.9 °F 30.23 in ESE 0.3 mph 3.5 mph 47 % 0.00 in
14:43 75.6 °F 54.5 °F 30.23 in ESE 2.4 mph 5.8 mph 48 % 0.00 in
14:48 75.5 °F 53.3 °F 30.22 in SE 1.3 mph 3.5 mph 46 % 0.00 in
14:53 75.3 °F 53.7 °F 30.22 in East 0.3 mph 1.2 mph 47 % 0.00 in
14:58 75.1 °F 54.1 °F 30.21 in NE 1.5 mph 3.5 mph 48 % 0.00 in
15:03 75.1 °F 55.2 °F 30.21 in East 1.2 mph 3.0 mph 50 % 0.00 in
15:08 75.1 °F 54.1 °F 30.21 in East 1.3 mph 2.3 mph 48 % 0.00 in
15:13 75.1 °F 52.3 °F 30.21 in East 0.1 mph 2.3 mph 45 % 0.00 in
15:18 75.1 °F 54.1 °F 30.21 in NE 0.7 mph 2.0 mph 48 % 0.00 in
15:23 75.0 °F 53.4 °F 30.21 in Calm   1.2 mph 47 % 0.00 in
15:29 74.8 °F 52.0 °F 30.21 in NE 0.7 mph 2.3 mph 45 % 0.00 in
15:34 74.7 °F 53.1 °F 30.21 in NE 0.2 mph 2.3 mph 47 % 0.00 in
15:39 74.6 °F 53.0 °F 30.20 in NE 0.5 mph 2.3 mph 47 % 0.00 in
15:44 74.5 °F 52.9 °F 30.20 in NE 0.8 mph 1.2 mph 47 % 0.00 in
15:49 74.5 °F 52.9 °F 30.20 in ESE 1.1 mph 2.3 mph 47 % 0.00 in
15:54 74.3 °F 51.6 °F 30.20 in Calm   1.2 mph 45 % 0.00 in
15:59 74.2 °F 52.7 °F 30.20 in ESE 0.7 mph 3.5 mph 47 % 0.00 in
16:04 74.0 °F 51.9 °F 30.20 in ESE 0.9 mph 2.3 mph 46 % 0.00 in
16:09 73.8 °F 52.3 °F 30.20 in ESE 0.4 mph 1.2 mph 47 % 0.00 in
16:14 73.7 °F 52.2 °F 30.19 in East 1.4 mph 2.3 mph 47 % 0.00 in
16:20 73.6 °F 53.3 °F 30.20 in East 0.6 mph 1.2 mph 49 % 0.00 in
16:25 73.5 °F 52.6 °F 30.20 in ENE 0.4 mph 2.3 mph 48 % 0.00 in
16:30 73.7 °F 52.2 °F 30.20 in ESE 1.0 mph 2.3 mph 47 % 0.00 in
16:35 73.5 °F 52.0 °F 30.20 in ESE 0.7 mph 2.3 mph 47 % 0.00 in
16:40 73.1 °F 51.7 °F 30.20 in Calm   1.2 mph 47 % 0.00 in
16:45 73.2 °F 52.3 °F 30.19 in ESE 0.7 mph 2.3 mph 48 % 0.00 in
16:50 73.0 °F 52.7 °F 30.19 in ESE 1.2 mph 2.3 mph 49 % 0.00 in
16:55 73.0 °F 52.1 °F 30.19 in SE 0.6 mph 1.2 mph 48 % 0.00 in
17:00 72.8 °F 52.0 °F 30.19 in SE 1.0 mph 2.3 mph 48 % 0.00 in
17:05 72.5 °F 51.7 °F 30.19 in SE 0.9 mph 2.0 mph 48 % 0.00 in
17:10 72.2 °F 52.0 °F 30.20 in Calm   1.2 mph 49 % 0.00 in
17:16 72.0 °F 52.3 °F 30.19 in SE 0.2 mph 2.3 mph 50 % 0.00 in
17:21 71.8 °F 51.6 °F 30.20 in Calm   2.0 mph 49 % 0.00 in
17:26 71.6 °F 52.5 °F 30.20 in SE 1.0 mph 1.0 mph 51 % 0.00 in
17:31 71.3 °F 51.7 °F 30.20 in SE 0.5 mph 1.2 mph 50 % 0.00 in
17:36 71.1 °F 52.0 °F 30.20 in Calm   1.0 mph 51 % 0.00 in
17:41 70.8 °F 52.3 °F 30.20 in Calm   1.0 mph 52 % 0.00 in
17:46 70.7 °F 52.2 °F 30.20 in Calm   1.0 mph 52 % 0.00 in
17:51 70.5 °F 52.5 °F 30.20 in Calm   1.0 mph 53 % 0.00 in
17:56 70.3 °F 51.8 °F 30.20 in Calm   1.0 mph 52 % 0.00 in
18:01 70.3 °F 52.4 °F 30.20 in Calm     53 % 0.00 in
18:06 70.1 °F 52.7 °F 30.20 in Calm     54 % 0.00 in
18:11 70.0 °F 52.1 °F 30.21 in Calm     53 % 0.00 in
18:16 69.8 °F 51.9 °F 30.21 in Calm     53 % 0.00 in
18:21 69.6 °F 52.7 °F 30.21 in Calm     55 % 0.00 in
18:26 69.3 °F 52.4 °F 30.21 in Calm     55 % 0.00 in
18:31 69.1 °F 51.8 °F 30.21 in Calm     54 % 0.00 in
18:36 69.0 °F 51.7 °F 30.21 in Calm     54 % 0.00 in
18:41 68.9 °F 52.1 °F 30.21 in SE 0.5 mph 1.2 mph 55 % 0.00 in
18:47 68.8 °F 52.0 °F 30.21 in SE 1.1 mph 2.0 mph 55 % 0.00 in
18:52 68.6 °F 53.7 °F 30.21 in SSE 0.2 mph 5.8 mph 59 % 0.00 in
18:57 68.4 °F 54.9 °F 30.21 in SSE 0.8 mph 2.3 mph 62 % 0.00 in
19:02 67.9 °F 55.3 °F 30.21 in SE 1.6 mph 3.5 mph 64 % 0.00 in
19:07 67.5 °F 55.7 °F 30.21 in SE 0.6 mph 2.3 mph 66 % 0.00 in
19:12 67.2 °F 55.9 °F 30.21 in SE 1.3 mph 3.5 mph 67 % 0.00 in
19:17 67.0 °F 56.1 °F 30.21 in SE 0.8 mph 2.3 mph 68 % 0.00 in
19:22 66.6 °F 55.7 °F 30.21 in SE 0.6 mph 2.3 mph 68 % 0.00 in
19:27 66.3 °F 55.8 °F 30.22 in SE 0.2 mph 3.5 mph 69 % 0.00 in
19:32 65.9 °F 55.8 °F 30.22 in SE 1.0 mph 2.3 mph 70 % 0.00 in
19:38 65.6 °F 55.9 °F 30.22 in SE 1.2 mph 3.5 mph 71 % 0.00 in
19:43 65.4 °F 55.7 °F 30.22 in SE 1.4 mph 3.5 mph 71 % 0.00 in
19:48 65.2 °F 55.9 °F 30.23 in SE 0.7 mph 2.3 mph 72 % 0.00 in
19:58 64.9 °F 56.0 °F 30.23 in Calm     73 % 0.00 in
20:03 64.7 °F 55.8 °F 30.23 in SE 0.2 mph 2.3 mph 73 % 0.00 in
20:08 64.5 °F 55.7 °F 30.23 in Calm     73 % 0.00 in
20:13 64.4 °F 55.9 °F 30.23 in Calm     74 % 0.00 in
20:18 64.2 °F 55.7 °F 30.23 in SE 0.6 mph 2.0 mph 74 % 0.00 in
20:23 64.0 °F 55.5 °F 30.23 in SE 0.2 mph 1.2 mph 74 % 0.00 in
20:28 63.8 °F 55.7 °F 30.24 in SE 0.5 mph 1.2 mph 75 % 0.00 in
20:34 63.6 °F 55.5 °F 30.24 in SE 0.5 mph 1.2 mph 75 % 0.00 in
20:39 63.5 °F 55.4 °F 30.24 in SE 1.7 mph 3.5 mph 75 % 0.00 in
20:44 63.4 °F 55.7 °F 30.24 in SE 0.8 mph 2.3 mph 76 % 0.00 in
20:49 63.3 °F 55.6 °F 30.24 in SE 0.9 mph 2.3 mph 76 % 0.00 in
20:54 63.2 °F 55.5 °F 30.24 in SE 1.0 mph 2.3 mph 76 % 0.00 in
20:59 63.1 °F 55.4 °F 30.24 in SE 1.2 mph 4.0 mph 76 % 0.00 in
21:04 63.1 °F 55.4 °F 30.24 in SE 1.3 mph 3.5 mph 76 % 0.00 in
21:09 63.1 °F 55.4 °F 30.25 in SE 2.5 mph 4.6 mph 76 % 0.00 in
21:14 63.1 °F 55.8 °F 30.25 in SE 2.9 mph 3.5 mph 77 % 0.00 in
21:19 63.1 °F 55.8 °F 30.25 in SE 2.1 mph 3.5 mph 77 % 0.00 in
21:25 63.1 °F 55.8 °F 30.25 in SE 1.5 mph 2.0 mph 77 % 0.00 in
21:30 63.1 °F 55.8 °F 30.25 in SE 0.4 mph 3.5 mph 77 % 0.00 in
21:35 62.9 °F 55.6 °F 30.25 in SSE 1.7 mph 3.5 mph 77 % 0.00 in
21:40 62.9 °F 55.6 °F 30.25 in SSE 0.5 mph 4.6 mph 77 % 0.00 in
21:45 62.9 °F 55.6 °F 30.25 in SSE 1.2 mph 3.5 mph 77 % 0.00 in
21:50 62.9 °F 55.6 °F 30.25 in Calm     77 % 0.00 in
21:55 62.9 °F 55.6 °F 30.25 in Calm     77 % 0.00 in
22:00 62.8 °F 55.5 °F 30.25 in Calm     77 % 0.00 in
22:05 62.7 °F 55.4 °F 30.25 in Calm     77 % 0.00 in
22:10 62.6 °F 55.6 °F 30.25 in Calm     78 % 0.00 in
22:16 62.5 °F 55.5 °F 30.26 in Calm     78 % 0.00 in
22:20 62.3 °F 55.4 °F 30.26 in Calm     78 % 0.00 in
22:26 62.2 °F 55.2 °F 30.26 in Calm     78 % 0.00 in
22:31 62.0 °F 55.4 °F 30.26 in Calm     79 % 0.00 in
22:35 61.7 °F 55.1 °F 30.26 in Calm     79 % 0.00 in
22:41 61.5 °F 55.3 °F 30.26 in Calm   1.0 mph 80 % 0.00 in
22:46 61.3 °F 55.4 °F 30.26 in SE 1.0 mph 3.0 mph 81 % 0.00 in
22:50 61.2 °F 55.3 °F 30.26 in SE 0.9 mph 2.3 mph 81 % 0.00 in
22:56 61.1 °F 55.2 °F 30.26 in Calm   3.0 mph 81 % 0.00 in
23:01 61.0 °F 55.1 °F 30.27 in SE 1.2 mph 2.3 mph 81 % 0.00 in
23:06 61.0 °F 55.1 °F 30.27 in Calm   3.0 mph 81 % 0.00 in
23:11 61.0 °F 55.5 °F 30.27 in SE 1.0 mph 3.0 mph 82 % 0.00 in
23:16 61.0 °F 55.1 °F 30.26 in Calm   2.0 mph 81 % 0.00 in
23:21 61.0 °F 55.1 °F 30.26 in Calm   1.0 mph 81 % 0.00 in
23:26 60.9 °F 55.0 °F 30.27 in Calm     81 % 0.00 in
23:31 60.9 °F 55.0 °F 30.26 in Calm     81 % 0.00 in
23:36 60.8 °F 54.9 °F 30.26 in Calm     81 % 0.00 in
23:41 60.7 °F 54.8 °F 30.27 in Calm     81 % 0.00 in
23:46 60.6 °F 54.7 °F 30.27 in Calm     81 % 0.00 in
23:51 60.4 °F 54.5 °F 30.26 in Calm   1.2 mph 81 % 0.00 in
23:56 60.2 °F 54.7 °F 30.27 in Calm     82 % 0.00 in
Crab Meadow Weather
Compliments of Weather Underground - 3 mb

Script developed by  Jim McMurry - jmcmurry@mwt.net Adapted for the template by  Wim van der Kuil - Leuven-Template.eu

Temperature: You can tell the temperature by counting the clicks a cricket makes in 15 seconds and adding 37!